Airfield :
LOGIN :

Register | Disclaimer

   EN    FR    IT 

 










Legend :    VFR   Marginal VFR   IFR   Intensive IFR   Very Intensive IFR
Visi :
Ceiling :
>= 8 km
>= 3000ft
5 to 8 km
1000 to 3000 ft
1500m to 5 km
500 to 1000 ft
800 to 1500m
200 to 500 ft
< 800m
< 200 ft
Symbols :   Thunderstorms  Fog  Heavy snow  Heavy precipitations  Wind > 20 kt
SIGMETs :     Misc.  Thunderstorms  Icing  Turbulence  Mountain Waves  Volcanic Ashes






- Airport Elevation : 20 ft
- IATA code : LSI


EGPB - Sumburgh

CURRENT METAR :
  • 231750Z 32013KT 9999 VCSH FEW015 FEW018CB 05/M01 Q1006 TEMPO SHRA

EXPIRED METARs :
  • 231720Z 33014KT 9999 VCSH SCT020CB 05/00 Q1006 TEMPO SHRA
  • 231650Z 33009KT 290V360 9999 -SHRA SCT020 05/02 Q1005 TEMPO SHRA
  • 231620Z 35006KT 9999 VCSH FEW014CB 04/02 Q1004 TEMPO SHRA
  • 231550Z 34006KT 9999 VCSH FEW014CB 05/02 Q1003 TEMPO SHRA
  • 231520Z 36009KT 9999 FEW015 05/02 Q1002

TAF TAF EGPB
Valid from the 23 at 18:00 until the 24 at 03:00 UTC


231658Z 2318/2403 35009KT 9999 FEW020
PROB30
TEMPO 2318/2321 34015G25KT 6000 SHRA BKN014
BECMG 2319/2322 27014KT
PROB40
TEMPO 2321/2403 28018G28KT



MET'MAP, your aeronautical weather chart ! - Copyright ORBIFLY December 2007 - Disclaimer

ORBIFLY MET'MAP TEAM :

Programming & Development : Alexandra Zaïnal
Concept & original design : Baudouin d'Aumeries
Assistance for programming : Marc-Olivier Méhu
Technical & hardware support : Manuel Goepfert

Contact : metmap@orbifly.com




SOURCES & CREDITS :

   NOAA